Time;durP1;ratioP1;P1;durP2;ratioP2;P2;SDS_P1;SDS_P2;PMS_P1;PMS_P2;Temp;Humidity;BMP_temperature;BMP_pressure;BME280_temperature;BME280_humidity;BME280_pressure;Samples;Min_cycle;Max_cycle;Signal;HPM_P1;HPM_P2
2022/03/10 00:01:29;;;;;;;19.35;5.20;;;;;;;;;;4967160;28;20511;-72
2022/03/10 00:03:55;;;;;;;15.45;4.35;;;;;;;;;;4968918;28;20034;-72
2022/03/10 00:06:21;;;;;;;8.60;4.80;;;;;;;;;;4969310;28;20027;-73
2022/03/10 00:08:47;;;;;;;12.65;5.03;;;;;;;;;;4965575;28;20054;-72
2022/03/10 00:11:13;;;;;;;9.95;4.72;;;;;;;;;;4968466;28;20030;-73
2022/03/10 00:13:39;;;;;;;11.88;4.57;;;;;;;;;;4968830;28;20496;-73
2022/03/10 00:16:05;;;;;;;13.15;5.65;;;;;;;;;;4968140;28;20030;-73
2022/03/10 00:18:31;;;;;;;13.18;4.35;;;;;;;;;;4967100;28;20070;-73
2022/03/10 00:20:57;;;;;;;15.38;4.78;;;;;;;;;;4968624;28;20035;-73
2022/03/10 00:23:23;;;;;;;9.80;4.38;;;;;;;;;;4967773;28;20678;-73
2022/03/10 00:25:49;;;;;;;11.18;6.15;;;;;;;;;;4968942;28;20019;-73
2022/03/10 00:28:15;;;;;;;7.18;3.50;;;;;;;;;;4967452;28;20026;-73
2022/03/10 00:30:41;;;;;;;8.68;3.85;;;;;;;;;;4968719;28;20031;-73
2022/03/10 00:33:07;;;;;;;8.35;3.40;;;;;;;;;;4966715;28;20030;-72
2022/03/10 00:35:34;;;;;;;8.23;3.03;;;;;;;;;;4951711;28;20448;-72
2022/03/10 00:38:00;;;;;;;5.85;3.97;;;;;;;;;;4949303;28;20122;-72
2022/03/10 00:40:26;;;;;;;16.90;3.03;;;;;;;;;;4968645;28;20038;-73
2022/03/10 00:42:52;;;;;;;8.02;3.85;;;;;;;;;;4966297;28;20019;-72
2022/03/10 00:45:18;;;;;;;7.53;3.53;;;;;;;;;;4968827;28;20035;-73
2022/03/10 00:47:44;;;;;;;19.33;3.80;;;;;;;;;;4966442;28;20026;-73
2022/03/10 00:50:11;;;;;;;5.38;3.45;;;;;;;;;;4969779;28;20037;-72
2022/03/10 00:52:44;;;;;;;5.30;3.30;;;;;;;;;;4947759;28;20097;-72
2022/03/10 00:55:11;;;;;;;6.30;3.30;;;;;;;;;;4967235;28;20507;-72
2022/03/10 00:57:37;;;;;;;5.57;2.67;;;;;;;;;;4966604;28;20031;-73
2022/03/10 01:00:05;;;;;;;11.07;4.55;;;;;;;;;;4950053;28;20038;-73
2022/03/10 01:02:32;;;;;;;10.90;4.75;;;;;;;;;;4966520;28;20065;-73
2022/03/10 01:04:58;;;;;;;5.97;3.53;;;;;;;;;;4950733;28;20121;-73
2022/03/10 01:07:24;;;;;;;8.93;3.45;;;;;;;;;;4947811;28;20522;-73
2022/03/10 01:09:49;;;;;;;7.38;3.08;;;5.20;99.90;;;;;;4949181;28;20042;-73
2022/03/10 01:12:15;;;;;;;5.85;3.20;;;;;;;;;;4966043;28;20555;-72
2022/03/10 01:14:41;;;;;;;10.32;3.38;;;;;;;;;;4968014;28;20157;-72
2022/03/10 01:17:07;;;;;;;5.05;3.22;;;;;;;;;;4968822;28;20042;-73
2022/03/10 01:19:33;;;;;;;6.28;2.80;;;;;;;;;;4966299;28;20034;-73
2022/03/10 01:21:59;;;;;;;6.97;3.80;;;;;;;;;;4965353;28;20054;-73
2022/03/10 01:24:25;;;;;;;3.90;2.72;;;;;;;;;;4966072;28;20042;-71
2022/03/10 01:26:51;;;;;;;6.38;3.47;;;;;;;;;;4968237;28;20025;-72
2022/03/10 01:29:18;;;;;;;7.10;3.55;;;;;;;;;;4964297;28;20399;-73
2022/03/10 01:31:44;;;;;;;9.30;3.00;;;;;;;;;;4965208;28;20590;-73
2022/03/10 01:34:10;;;;;;;9.65;3.47;;;;;;;;;;4965186;28;20085;-73
2022/03/10 01:36:35;;;;;;;7.07;3.03;;;;;;;;;;4967488;28;20030;-72
2022/03/10 01:39:04;;;;;;;7.03;3.33;;;;;;;;;;4964663;28;20072;-73
2022/03/10 01:41:32;;;;;;;10.27;3.58;;;;;;;;;;4966516;28;20063;-73
2022/03/10 01:43:59;;;;;;;6.35;2.38;;;;;;;;;;4967171;28;20113;-73
2022/03/10 01:46:26;;;;;;;10.50;3.60;;;;;;;;;;4967551;28;20027;-73
2022/03/10 01:48:52;;;;;;;11.57;4.28;;;;;;;;;;4965674;28;20042;-72
2022/03/10 01:51:18;;;;;;;5.55;3.42;;;;;;;;;;4965858;28;20555;-73
2022/03/10 01:53:43;;;;;;;9.20;3.15;;;4.20;96.60;;;;;;4963779;28;20023;-73
2022/03/10 01:56:10;;;;;;;9.75;4.93;;;;;;;;;;4968488;28;20093;-72
2022/03/10 01:58:40;;;;;;;6.35;2.55;;;;;;;;;;4964668;28;20492;-72
2022/03/10 02:01:08;;;;;;;9.27;4.75;;;;;;;;;;4965734;28;20065;-73
2022/03/10 02:03:35;;;;;;;11.45;4.55;;;;;;;;;;4966300;28;20097;-73
2022/03/10 02:06:01;;;;;;;6.35;2.92;;;;;;;;;;4948882;28;20078;-72
2022/03/10 02:11:12;;;;;;;7.70;4.05;;;;;;;;;;4966850;28;20567;-74
2022/03/10 02:13:38;;;;;;;10.75;3.47;;;;;;;;;;4966002;28;20490;-73
2022/03/10 02:18:49;;;;;;;6.75;3.90;;;;;;;;;;4965818;28;20058;-72
2022/03/10 02:21:15;;;;;;;17.08;3.72;;;;;;;;;;4964854;28;20697;-73
2022/03/10 02:23:41;;;;;;;4.30;2.95;;;;;;;;;;4965141;28;20034;-72
2022/03/10 02:26:07;;;;;;;8.35;4.65;;;;;;;;;;4967838;28;20041;-72
2022/03/10 02:28:34;;;;;;;7.63;3.90;;;;;;;;;;4964429;28;20089;-73
2022/03/10 02:31:00;;;;;;;8.48;4.00;;;;;;;;;;4966251;28;20035;-73
2022/03/10 02:33:26;;;;;;;6.15;3.28;;;;;;;;;;4947226;28;20042;-72
2022/03/10 02:35:52;;;;;;;8.45;2.97;;;;;;;;;;4966677;28;20030;-72
2022/03/10 02:38:18;;;;;;;7.85;4.05;;;;;;;;;;4965662;28;20065;-72
2022/03/10 02:40:45;;;;;;;8.82;3.25;;;;;;;;;;4966015;28;20514;-72
2022/03/10 02:43:11;;;;;;;6.07;2.42;;;;;;;;;;4964996;28;20065;-73
2022/03/10 02:45:37;;;;;;;8.40;3.75;;;;;;;;;;4967020;28;20717;-73
2022/03/10 02:48:03;;;;;;;5.03;2.75;;;;;;;;;;4965628;28;20027;-72
2022/03/10 02:50:29;;;;;;;4.40;2.53;;;;;;;;;;4965813;28;20054;-73
2022/03/10 02:52:55;;;;;;;7.78;3.85;;;;;;;;;;4965615;28;20040;-73
2022/03/10 02:55:21;;;;;;;10.77;3.30;;;4.50;90.90;;;;;;4966419;28;20026;-72
2022/03/10 02:57:48;;;;;;;5.97;2.90;;;;;;;;;;4964662;28;20093;-73
2022/03/10 03:00:14;;;;;;;10.30;3.17;;;;;;;;;;4966860;28;20034;-73
2022/03/10 03:02:41;;;;;;;5.78;2.97;;;;;;;;;;4964035;28;20030;-73
2022/03/10 03:05:07;;;;;;;14.15;4.32;;;;;;;;;;4951097;28;20039;-73
2022/03/10 03:07:34;;;;;;;5.95;3.50;;;;;;;;;;4968186;28;20432;-73
2022/03/10 03:10:00;;;;;;;6.43;3.15;;;;;;;;;;4970366;28;20045;-73
2022/03/10 03:12:26;;;;;;;5.95;2.42;;;;;;;;;;4967488;28;20031;-73
2022/03/10 03:14:52;;;;;;;7.10;2.80;;;;;;;;;;4971135;28;20435;-73
2022/03/10 03:17:18;;;;;;;7.35;2.70;;;;;;;;;;4970544;28;20035;-73
2022/03/10 03:19:44;;;;;;;5.53;3.53;;;;;;;;;;4968660;28;20121;-73
2022/03/10 03:22:10;;;;;;;8.70;3.05;;;;;;;;;;4967533;28;20118;-72
2022/03/10 03:24:37;;;;;;;6.70;3.67;;;;;;;;;;4969661;28;20034;-73
2022/03/10 03:27:03;;;;;;;3.70;2.55;;;;;;;;;;4968411;28;20138;-73
2022/03/10 03:29:29;;;;;;;10.73;3.78;;;;;;;;;;4967043;28;20561;-72
2022/03/10 03:31:56;;;;;;;6.50;3.05;;;;;;;;;;4968784;28;20512;-74
2022/03/10 03:34:22;;;;;;;6.43;2.88;;;;;;;;;;4969176;28;20031;-72
2022/03/10 03:36:48;;;;;;;5.82;3.95;;;;;;;;;;4969408;28;20026;-73
2022/03/10 03:39:14;;;;;;;10.25;4.25;;;;;;;;;;4965937;28;20527;-72
2022/03/10 03:41:41;;;;;;;10.55;3.03;;;;;;;;;;4968001;28;20065;-73
2022/03/10 03:44:07;;;;;;;9.52;5.30;;;;;;;;;;4970481;28;20034;-72
2022/03/10 03:46:33;;;;;;;9.13;4.77;;;4.30;92.60;;;;;;4970134;28;20576;-73
2022/03/10 03:48:59;;;;;;;4.53;2.78;;;;;;;;;;4967187;28;20175;-74
2022/03/10 03:51:26;;;;;;;10.38;3.85;;;;;;;;;;4968153;28;20547;-73
2022/03/10 03:53:52;;;;;;;3.42;2.05;;;4.30;98.00;;;;;;4968938;28;20062;-72
2022/03/10 03:56:18;;;;;;;6.55;3.72;;;;;;;;;;4970845;28;20038;-73
2022/03/10 03:58:44;;;;;;;8.43;4.22;;;;;;;;;;4967082;28;20049;-72
2022/03/10 04:01:10;;;;;;;9.90;3.20;;;4.50;99.90;;;;;;4967487;28;20035;-72
2022/03/10 04:03:36;;;;;;;5.70;2.83;;;;;;;;;;4960883;28;20094;-73
2022/03/10 04:06:02;;;;;;;8.57;3.25;;;;;;;;;;4969099;28;20026;-71
2022/03/10 04:08:28;;;;;;;9.23;2.85;;;;;;;;;;4967314;28;20432;-73
2022/03/10 04:10:54;;;;;;;5.18;2.63;;;;;;;;;;4970427;28;20109;-74
2022/03/10 04:13:24;;;;;;;7.47;3.55;;;;;;;;;;4966464;28;20038;-73
2022/03/10 04:15:51;;;;;;;10.95;3.05;;;;;;;;;;4968878;28;20034;-72
2022/03/10 04:18:17;;;;;;;10.23;4.45;;;;;;;;;;4949630;28;20045;-72
2022/03/10 04:20:43;;;;;;;6.43;1.70;;;4.10;95.80;;;;;;4968683;28;20141;-73
2022/03/10 04:23:10;;;;;;;8.38;2.47;;;;;;;;;;4967161;28;20037;-72
2022/03/10 04:25:36;;;;;;;5.50;3.50;;;;;;;;;;4968610;28;20117;-73
2022/03/10 04:28:02;;;;;;;4.45;2.05;;;;;;;;;;4949224;28;20137;-73
2022/03/10 04:30:29;;;;;;;5.43;2.67;;;;;;;;;;4968844;28;20026;-73
2022/03/10 04:32:55;;;;;;;5.75;2.45;;;;;;;;;;4949388;28;20399;-73
2022/03/10 04:35:21;;;;;;;5.07;2.83;;;;;;;;;;4969154;28;20027;-74
2022/03/10 04:37:51;;;;;;;6.95;2.40;;;;;;;;;;4967791;28;20436;-72
2022/03/10 04:40:17;;;;;;;5.05;2.58;;;;;;;;;;4968644;28;20026;-73
2022/03/10 04:42:43;;;;;;;8.48;3.15;;;;;;;;;;4966211;28;20098;-73
2022/03/10 04:45:09;;;;;;;6.10;2.85;;;4.30;92.40;;;;;;4968206;28;20065;-73
2022/03/10 04:47:36;;;;;;;7.43;2.33;;;;;;;;;;4967648;28;20026;-72
2022/03/10 04:50:02;;;;;;;4.65;2.25;;;;;;;;;;4968867;28;20062;-72
2022/03/10 04:52:29;;;;;;;4.47;2.78;;;;;;;;;;4966152;28;20031;-72
2022/03/10 04:54:55;;;;;;;4.97;2.83;;;5.10;92.90;;;;;;4968721;28;20035;-72
2022/03/10 04:57:21;;;;;;;10.48;3.15;;;;;;;;;;4967384;28;20027;-73
2022/03/10 04:59:48;;;;;;;5.35;3.20;;;;;;;;;;4968558;28;20039;-72
2022/03/10 05:02:13;;;;;;;2.90;1.98;;;4.50;94.00;;;;;;4968150;28;20636;-72
2022/03/10 05:04:39;;;;;;;5.30;2.42;;;;;;;;;;4965787;28;20038;-72
2022/03/10 05:07:05;;;;;;;3.83;2.33;;;;;;;;;;4967484;28;20023;-73
2022/03/10 05:09:31;;;;;;;3.53;2.35;;;;;;;;;;4966614;28;20508;-72
2022/03/10 05:11:57;;;;;;;2.63;1.45;;;;;;;;;;4967165;28;20045;-73
2022/03/10 05:14:24;;;;;;;6.18;2.85;;;;;;;;;;4949571;28;20038;-72
2022/03/10 05:16:50;;;;;;;7.63;2.92;;;;;;;;;;4967273;28;20033;-73
2022/03/10 05:19:16;;;;;;;1.90;1.73;;;;;;;;;;4966474;28;20030;-72
2022/03/10 05:21:42;;;;;;;5.95;3.70;;;;;;;;;;4950546;28;20787;-74
2022/03/10 05:24:08;;;;;;;5.13;2.65;;;;;;;;;;4965081;28;20061;-73
2022/03/10 05:26:34;;;;;;;7.25;3.70;;;;;;;;;;4967730;28;20109;-72
2022/03/10 05:29:00;;;;;;;3.78;2.55;;;;;;;;;;4966969;28;20054;-74
2022/03/10 05:31:28;;;;;;;8.73;2.85;;;;;;;;;;4967755;28;20034;-72
2022/03/10 05:33:56;;;;;;;;;;;;;;;;;;4966087;28;20030;-73
2022/03/10 05:36:22;;;;;;;14.48;2.70;;;4.20;97.70;;;;;;4951152;28;19948;-73
2022/03/10 05:38:48;;;;;;;9.65;2.78;;;;;;;;;;4964749;28;20073;-72
2022/03/10 05:41:14;;;;;;;6.65;2.83;;;;;;;;;;4968567;28;20062;-72
2022/03/10 05:43:40;;;;;;;6.07;3.17;;;;;;;;;;4965357;28;20089;-74
2022/03/10 05:46:06;;;;;;;5.90;3.67;;;;;;;;;;4967647;28;20026;-73
2022/03/10 05:48:32;;;;;;;4.57;2.35;;;;;;;;;;4965572;28;20113;-72
2022/03/10 05:50:58;;;;;;;3.80;1.88;;;;;;;;;;4967464;28;20026;-73
2022/03/10 05:53:25;;;;;;;6.38;2.85;;;;;;;;;;4964642;28;20045;-73
2022/03/10 05:55:51;;;;;;;5.60;2.63;;;;;;;;;;4968096;28;20015;-73
2022/03/10 05:58:17;;;;;;;4.43;2.22;;;;;;;;;;4965418;28;20039;-72
2022/03/10 06:00:44;;;;;;;2.15;1.77;;;;;;;;;;4949454;28;20031;-72
2022/03/10 06:03:10;;;;;;;6.95;3.17;;;;;;;;;;4964183;28;20093;-73
2022/03/10 06:05:36;;;;;;;8.73;3.03;;;;;;;;;;4965993;28;20500;-73
2022/03/10 06:08:02;;;;;;;7.20;4.03;;;;;;;;;;4965394;28;20050;-73
2022/03/10 06:10:28;;;;;;;6.15;2.45;;;;;;;;;;4949165;28;20087;-72
2022/03/10 06:12:54;;;;;;;6.32;2.92;;;;;;;;;;4946431;28;20035;-72
2022/03/10 06:15:20;;;;;;;3.92;2.05;;;;;;;;;;4966570;28;20041;-72
2022/03/10 06:17:46;;;;;;;6.93;3.42;;;;;;;;;;4960226;28;20589;-73
2022/03/10 06:20:12;;;;;;;4.65;2.63;;;;;;;;;;4966412;28;20034;-73
2022/03/10 06:22:38;;;;;;;13.90;2.72;;;;;;;;;;4962932;28;20027;-73
2022/03/10 06:25:05;;;;;;;6.18;2.78;;;;;;;;;;4964369;28;20054;-73
2022/03/10 06:27:32;;;;;;;7.88;3.00;;;;;;;;;;4963099;28;20030;-73
2022/03/10 06:29:58;;;;;;;6.65;3.45;;;;;;;;;;4964667;28;20049;-73
2022/03/10 06:32:25;;;;;;;8.40;4.20;;;;;;;;;;4961396;28;20031;-72
2022/03/10 06:34:53;;;;;;;6.00;3.15;;;4.60;92.00;;;;;;4965843;28;20035;-73
2022/03/10 06:37:19;;;;;;;8.15;3.13;;;;;;;;;;4963156;28;20459;-74
2022/03/10 06:39:45;;;;;;;7.13;2.78;;;;;;;;;;4963181;28;20049;-73
2022/03/10 06:42:11;;;;;;;10.20;3.72;;;;;;;;;;4966353;28;20038;-73
2022/03/10 06:44:38;;;;;;;5.28;3.20;;;;;;;;;;4965341;28;20741;-71
2022/03/10 06:47:09;;;;;;;7.43;3.85;;;;;;;;;;4965426;28;20113;-74
2022/03/10 06:49:35;;;;;;;5.80;4.07;;;;;;;;;;4963943;28;20039;-70
2022/03/10 06:52:01;;;;;;;9.35;4.10;;;;;;;;;;4969558;28;20137;-70
2022/03/10 06:54:27;;;;;;;6.65;3.58;;;;;;;;;;4968171;28;20426;-70
2022/03/10 06:56:53;;;;;;;6.47;3.83;;;;;;;;;;4968784;28;20030;-70
2022/03/10 06:59:19;;;;;;;10.52;5.65;;;7.40;95.00;;;;;;4971367;28;20053;-70
2022/03/10 07:01:45;;;;;;;8.07;6.35;;;;;;;;;;4943115;29;20040;-70
2022/03/10 07:04:11;;;;;;;8.85;6.32;;;;;;;;;;4966358;28;20038;-70
2022/03/10 07:06:37;;;;;;;10.07;3.60;;;;;;;;;;4969214;28;20026;-71
2022/03/10 07:09:03;;;;;;;7.68;5.13;;;;;;;;;;4956041;28;20054;-71
2022/03/10 07:11:29;;;;;;;11.95;6.13;;;12.80;81.10;;;;;;4953222;28;20110;-70
2022/03/10 07:13:55;;;;;;;9.60;4.88;;;;;;;;;;4951979;29;20127;-70
2022/03/10 07:16:21;;;;;;;12.07;6.00;;;;;;;;;;4955641;28;20033;-71
2022/03/10 07:18:50;;;;;;;10.52;5.15;;;;;;;;;;4955857;28;20039;-71
2022/03/10 07:21:18;;;;;;;11.27;5.15;;;;;;;;;;4959309;28;20027;-70
2022/03/10 07:23:43;;;;;;;;;;;;;;;;;;4971262;28;20042;-74
2022/03/10 07:26:10;;;;;;;6.53;4.22;;;;;;;;;;4972349;28;19912;-75
2022/03/10 07:28:36;;;;;;;9.87;6.20;;;;;;;;;;4971087;28;20027;-75
2022/03/10 07:31:02;;;;;;;14.80;10.55;;;;;;;;;;4970648;28;20031;-74
2022/03/10 07:33:28;;;;;;;8.70;5.57;;;;;;;;;;4970830;28;20031;-74
2022/03/10 07:35:55;;;;;;;7.53;4.37;;;;;;;;;;4970877;28;20026;-74
2022/03/10 07:38:21;;;;;;;6.82;3.72;;;;;;;;;;4964379;28;20062;-75
2022/03/10 07:40:47;;;;;;;4.67;3.40;;;;;;;;;;4955768;28;20057;-75
2022/03/10 07:43:13;;;;;;;8.68;3.55;;;;;;;;;;4966349;28;20022;-75
2022/03/10 07:45:39;;;;;;;7.47;2.65;;;;;;;;;;4963946;28;20031;-72
2022/03/10 07:48:05;;;;;;;6.70;2.80;;;20.20;50.80;;;;;;4940081;28;20033;-73
2022/03/10 07:50:31;;;;;;;5.90;3.17;;;;;;;;;;4948496;28;20508;-75
2022/03/10 07:52:57;;;;;;;9.77;2.97;;;;;;;;;;4966269;28;20045;-75
2022/03/10 07:55:23;;;;;;;5.55;2.80;;;;;;;;;;4967266;28;20037;-74
2022/03/10 07:57:49;;;;;;;6.55;3.83;;;;;;;;;;4970476;28;20077;-73
2022/03/10 08:00:15;;;;;;;7.38;3.40;;;;;;;;;;4970345;28;20375;-73
2022/03/10 08:02:41;;;;;;;10.05;5.78;;;;;;;;;;4961873;28;20035;-76
2022/03/10 08:05:08;;;;;;;5.57;3.87;;;;;;;;;;4971128;28;20034;-74
2022/03/10 08:07:34;;;;;;;5.60;3.63;;;22.40;55.10;;;;;;4970039;28;20038;-75
2022/03/10 08:10:07;;;;;;;6.20;4.32;;;;;;;;;;4965070;28;20138;-72
2022/03/10 08:12:34;;;;;;;8.55;5.50;;;;;;;;;;4960247;28;20078;-72
2022/03/10 08:15:00;;;;;;;6.40;3.35;;;;;;;;;;4970225;28;20033;-73
2022/03/10 08:17:27;;;;;;;7.15;3.22;;;;;;;;;;4968564;28;20068;-73
2022/03/10 08:19:53;;;;;;;8.02;3.30;;;23.50;35.10;;;;;;4970974;28;20042;-75
2022/03/10 08:22:20;;;;;;;6.05;3.53;;;24.10;34.40;;;;;;4969603;28;20118;-72
2022/03/10 08:24:46;;;;;;;4.05;2.72;;;;;;;;;;4963135;28;20043;-76
2022/03/10 08:27:15;;;;;;;4.70;2.70;;;;;;;;;;4966202;28;20038;-76
2022/03/10 08:29:41;;;;;;;6.97;2.70;;;;;;;;;;4969131;28;20440;-73
2022/03/10 08:32:08;;;;;;;3.35;2.50;;;;;;;;;;4968933;28;20034;-73
2022/03/10 08:34:35;;;;;;;5.18;2.13;;;;;;;;;;4956075;28;20125;-72
2022/03/10 08:37:01;;;;;;;3.75;2.10;;;;;;;;;;4955549;28;20058;-72
2022/03/10 08:39:27;;;;;;;5.83;3.47;;;;;;;;;;4964940;28;20675;-72
2022/03/10 08:41:53;;;;;;;6.53;2.97;;;;;;;;;;4947251;28;20523;-73
2022/03/10 08:44:20;;;;;;;4.20;1.53;;;;;;;;;;4970873;28;20034;-72
2022/03/10 08:46:46;;;;;;;2.20;1.48;;;;;;;;;;4968814;28;20937;-72
2022/03/10 08:49:13;;;;;;;5.78;2.28;;;;;;;;;;4961093;28;20146;-72
2022/03/10 08:51:39;;;;;;;2.90;1.95;;;24.10;36.90;;;;;;4954318;28;20030;-71
2022/03/10 08:54:05;;;;;;;4.18;1.50;;;23.90;51.00;;;;;;4956215;28;20035;-72
2022/03/10 08:56:31;;;;;;;15.07;2.97;;;;;;;;;;4969535;28;20031;-72
2022/03/10 08:58:57;;;;;;;3.10;1.65;;;;;;;;;;4953531;28;20051;-73
2022/03/10 09:01:23;;;;;;;2.17;1.42;;;;;;;;;;4948649;28;20030;-72
2022/03/10 09:03:49;;;;;;;2.25;1.50;;;;;;;;;;4961918;28;20027;-72
2022/03/10 09:06:16;;;;;;;2.33;1.15;;;;;;;;;;4956407;28;20022;-73
2022/03/10 09:08:44;;;;;;;3.08;1.30;;;;;;;;;;4968717;28;20479;-73
2022/03/10 09:11:10;;;;;;;4.05;1.60;;;;;;;;;;4970225;28;20496;-72
2022/03/10 09:13:36;;;;;;;2.38;1.20;;;;;;;;;;4954035;28;20035;-72
2022/03/10 09:16:02;;;;;;;1.92;1.23;;;;;;;;;;4962076;28;20034;-76
2022/03/10 09:18:28;;;;;;;4.13;1.98;;;;;;;;;;4968790;28;20038;-75
2022/03/10 09:20:54;;;;;;;2.47;1.83;;;;;;;;;;4968662;28;20038;-75
2022/03/10 09:23:21;;;;;;;3.25;1.58;;;;;;;;;;4969923;28;20027;-75
2022/03/10 09:25:47;;;;;;;2.53;1.60;;;;;;;;;;4968782;28;20130;-75
2022/03/10 09:28:13;;;;;;;3.60;2.13;;;;;;;;;;4968864;28;20169;-74
2022/03/10 09:30:39;;;;;;;3.00;1.48;;;;;;;;;;4967985;28;20031;-74
2022/03/10 09:33:05;;;;;;;4.05;2.55;;;22.20;32.40;;;;;;4968805;28;20797;-74
2022/03/10 09:35:31;;;;;;;1.42;1.20;;;;;;;;;;4965921;28;20113;-72
2022/03/10 09:37:57;;;;;;;3.22;1.65;;;;;;;;;;4964615;28;20045;-73
2022/03/10 09:40:24;;;;;;;2.08;1.35;;;;;;;;;;4968678;28;20115;-73
2022/03/10 09:42:50;;;;;;;4.77;1.20;;;;;;;;;;4968679;28;20038;-72
2022/03/10 09:45:17;;;;;;;1.58;1.13;;;;;;;;;;4967954;28;20270;-75
2022/03/10 09:47:44;;;;;;;;;;;23.30;31.60;;;;;;4968793;28;20113;-73
2022/03/10 09:50:14;;;;;;;1.75;0.88;;;;;;;;;;4951440;28;20276;-72
2022/03/10 09:52:41;;;;;;;2.50;1.20;;;;;;;;;;4949539;28;20034;-73
2022/03/10 09:55:07;;;;;;;1.95;1.17;;;;;;;;;;4959005;28;20035;-72
2022/03/10 09:57:37;;;;;;;4.80;2.40;;;;;;;;;;4958256;28;20503;-72
2022/03/10 10:00:05;;;;;;;3.75;2.17;;;21.90;54.40;;;;;;4966500;28;20038;-71
2022/03/10 10:02:31;;;;;;;4.10;1.38;;;;;;;;;;4949848;28;20031;-70
2022/03/10 10:04:57;;;;;;;2.60;1.95;;;;;;;;;;4952359;28;20027;-71
2022/03/10 10:07:28;;;;;;;3.28;1.70;;;;;;;;;;4963222;28;20496;-74
2022/03/10 10:09:56;;;;;;;2.00;1.65;;;;;;;;;;4959819;28;20043;-74
2022/03/10 10:12:29;;;;;;;2.05;1.02;;;21.10;36.00;;;;;;4952791;28;20531;-72
2022/03/10 10:14:56;;;;;;;2.05;1.63;;;;;;;;;;4955019;28;20105;-72
2022/03/10 10:17:27;;;;;;;1.55;1.05;;;;;;;;;;4949598;29;20106;-73
2022/03/10 10:19:55;;;;;;;2.85;1.50;;;;;;;;;;4952864;28;20401;-71
2022/03/10 10:22:24;;;;;;;2.20;1.45;;;;;;;;;;4963690;28;20058;-72
2022/03/10 10:24:50;;;;;;;1.98;1.33;;;;;;;;;;4967892;28;20031;-71
2022/03/10 10:27:21;;;;;;;3.17;1.27;;;;;;;;;;4968250;28;20019;-71
2022/03/10 10:29:47;;;;;;;3.30;1.77;;;;;;;;;;4967677;28;20039;-74
2022/03/10 10:32:22;;;;;;;4.60;1.58;;;23.00;39.40;;;;;;4968522;28;20026;-71
2022/03/10 10:34:57;;;;;;;2.45;1.40;;;;;;;;;;4966056;28;20034;-73
2022/03/10 10:37:23;;;;;;;2.53;2.10;;;;;;;;;;4949405;28;20524;-75
2022/03/10 10:39:53;;;;;;;6.30;1.67;;;;;;;;;;4964224;28;20035;-73
2022/03/10 10:42:19;;;;;;;3.05;1.58;;;;;;;;;;4966597;28;20031;-73
2022/03/10 10:44:45;;;;;;;2.55;1.58;;;23.50;43.10;;;;;;4965424;28;20047;-71
2022/03/10 10:47:11;;;;;;;3.42;1.83;;;;;;;;;;4968462;28;20063;-71
2022/03/10 10:49:37;;;;;;;4.57;1.88;;;;;;;;;;4953878;28;20035;-72
2022/03/10 10:52:03;;;;;;;2.53;1.98;;;;;;;;;;4961150;28;20848;-72
2022/03/10 10:54:31;;;;;;;4.13;1.70;;;;;;;;;;4963145;28;20064;-71
2022/03/10 10:56:59;;;;;;;3.92;1.80;;;;;;;;;;4952413;28;20530;-71
2022/03/10 10:59:31;;;;;;;4.90;1.02;;;;;;;;;;4949264;28;20035;-75
2022/03/10 11:02:11;;;;;;;3.67;1.92;;;;;;;;;;4953946;28;20042;-74
2022/03/10 11:04:41;;;;;;;3.33;1.40;;;;;;;;;;4965104;28;20049;-75
2022/03/10 11:07:11;;;;;;;5.22;1.85;;;;;;;;;;4957884;28;20031;-74
2022/03/10 11:09:37;;;;;;;3.55;1.50;;;;;;;;;;4952308;28;20066;-71
2022/03/10 11:12:04;;;;;;;3.75;1.77;;;;;;;;;;4952283;28;20033;-71
2022/03/10 11:14:31;;;;;;;1.67;1.30;;;;;;;;;;4949473;28;20035;-71
2022/03/10 11:16:58;;;;;;;4.38;2.47;;;;;;;;;;4963407;28;20083;-71
2022/03/10 11:19:26;;;;;;;4.65;1.95;;;;;;;;;;4964145;28;20081;-71
2022/03/10 11:22:02;;;;;;;2.80;2.03;;;;;;;;;;4967515;28;20093;-71
2022/03/10 11:24:47;;;;;;;3.88;1.92;;;;;;;;;;4962969;28;20059;-72
2022/03/10 11:27:15;;;;;;;3.55;1.85;;;;;;;;;;4957527;28;20038;-71
2022/03/10 11:29:42;;;;;;;4.13;2.45;;;;;;;;;;4970945;28;20105;-71
2022/03/10 11:32:10;;;;;;;4.63;2.53;;;;;;;;;;4971518;28;20051;-73
2022/03/10 11:34:48;;;;;;;4.00;1.77;;;;;;;;;;4957086;28;20515;-70
2022/03/10 11:37:34;;;;;;;3.85;1.98;;;;;;;;;;4965877;28;20723;-71
2022/03/10 11:40:02;;;;;;;3.97;2.15;;;;;;;;;;4891321;29;20076;-71
2022/03/10 11:42:28;;;;;;;;;;;;;;;;;;4875712;29;20957;-74
2022/03/10 11:45:07;;;;;;;6.38;2.70;;;;;;;;;;4892077;29;19911;-73
2022/03/10 11:47:33;;;;;;;4.18;2.53;;;;;;;;;;4889268;29;20587;-68
2022/03/10 11:50:19;;;;;;;4.03;2.20;;;;;;;;;;4892297;29;20037;-71
2022/03/10 11:52:50;;;;;;;4.07;2.35;;;;;;;;;;4875698;29;20048;-74
2022/03/10 11:55:16;;;;;;;5.13;2.08;;;;;;;;;;4891501;29;20539;-73
2022/03/10 11:57:54;;;;;;;4.78;2.63;;;;;;;;;;4891137;29;20048;-71
2022/03/10 12:00:49;;;;;;;4.63;1.98;;;17.30;44.30;;;;;;4891558;29;20201;-72
2022/03/10 12:03:24;;;;;;;4.35;2.30;;;;;;;;;;4875268;29;20037;-71
2022/03/10 12:05:52;;;;;;;4.28;2.63;;;;;;;;;;4891106;29;20060;-71
2022/03/10 12:08:18;;;;;;;3.28;1.80;;;;;;;;;;4892641;29;20113;-72
2022/03/10 12:10:45;;;;;;;3.27;1.80;;;;;;;;;;4891072;29;20057;-75
2022/03/10 12:13:44;;;;;;;3.85;1.92;;;18.90;40.80;;;;;;4890665;29;20028;-76
2022/03/10 12:16:30;;;;;;;5.35;2.35;;;;;;;;;;4837341;29;20030;-75
2022/03/10 12:18:58;;;;;;;4.13;3.70;;;;;;;;;;4890798;29;20052;-73
2022/03/10 12:21:23;;;;;;;;;;;;;;;;;;4891593;29;20112;-73
2022/03/10 12:23:59;;;;;;;3.25;1.45;;;;;;;;;;4891057;29;20515;-71
2022/03/10 12:26:26;;;;;;;3.35;2.10;;;;;;;;;;4872630;29;20415;-72
2022/03/10 12:28:54;;;;;;;3.97;2.40;;;;;;;;;;4891464;29;20514;-74
2022/03/10 12:31:20;;;;;;;4.30;2.97;;;;;;;;;;4890750;29;20394;-75
2022/03/10 12:33:50;;;;;;;5.22;1.65;;;;;;;;;;4889389;29;20506;-73
2022/03/10 12:36:34;;;;;;;2.88;2.13;;;;;;;;;;4878192;29;20549;-73
2022/03/10 12:39:03;;;;;;;6.05;1.88;;;;;;;;;;4875742;29;20052;-73
2022/03/10 12:41:36;;;;;;;4.25;1.95;;;17.40;44.50;;;;;;4890390;29;20032;-74
2022/03/10 12:44:03;;;;;;;4.55;2.35;;;;;;;;;;4890792;29;20025;-74
2022/03/10 12:46:29;;;;;;;3.75;1.92;;;;;;;;;;4889125;29;20049;-74
2022/03/10 12:48:58;;;;;;;4.00;2.30;;;;;;;;;;4889808;29;20058;-74
2022/03/10 12:51:25;;;;;;;4.35;2.53;;;;;;;;;;4913888;28;20071;-73
2022/03/10 12:53:52;;;;;;;;;;;;;;;;;;4954456;28;20038;-74
2022/03/10 12:56:18;;;;;;;3.58;1.95;;;;;;;;;;4951206;28;20139;-72
2022/03/10 12:58:46;;;;;;;3.75;1.63;;;;;;;;;;4967797;28;20607;-72
2022/03/10 13:01:12;;;;;;;2.67;1.63;;;;;;;;;;4967551;28;20031;-72
2022/03/10 13:03:46;;;;;;;5.00;2.10;;;;;;;;;;4962505;28;20085;-75
2022/03/10 13:06:12;;;;;;;6.28;2.40;;;;;;;;;;4955824;28;20370;-72
2022/03/10 13:08:45;;;;;;;6.85;2.80;;;;;;;;;;4968974;28;20062;-74
2022/03/10 13:11:11;;;;;;;4.68;2.95;;;16.90;47.80;;;;;;4954968;28;20093;-75
2022/03/10 13:13:37;;;;;;;4.10;2.60;;;;;;;;;;4953243;28;20034;-73
2022/03/10 13:16:04;;;;;;;10.85;3.42;;;;;;;;;;4962011;28;20496;-71
2022/03/10 13:18:43;;;;;;;3.55;2.80;;;;;;;;;;4962596;28;20047;-70
2022/03/10 13:21:10;;;;;;;6.65;3.42;;;;;;;;;;4955147;28;20027;-71
2022/03/10 13:23:36;;;;;;;7.05;3.70;;;;;;;;;;4968758;28;20030;-68
2022/03/10 13:26:03;;;;;;;7.30;3.55;;;;;;;;;;4969319;28;20030;-70
2022/03/10 13:28:30;;;;;;;8.15;3.60;;;;;;;;;;4968213;28;20031;-71
2022/03/10 13:30:56;;;;;;;;;;;;;;;;;;4968378;28;20062;-71
2022/03/10 13:33:25;;;;;;;6.65;3.17;;;;;;;;;;4968054;28;20091;-71
2022/03/10 13:35:56;;;;;;;5.88;3.75;;;;;;;;;;4968516;28;20022;-71
2022/03/10 13:38:23;;;;;;;6.28;4.25;;;;;;;;;;4961759;28;20668;-70
2022/03/10 13:40:49;;;;;;;5.22;2.50;;;;;;;;;;4968018;28;20038;-70
2022/03/10 13:43:22;;;;;;;9.07;4.43;;;;;;;;;;4964330;28;20027;-74
2022/03/10 13:45:48;;;;;;;8.93;3.80;;;;;;;;;;4967945;28;20038;-74
2022/03/10 13:48:17;;;;;;;6.32;3.22;;;17.30;49.90;;;;;;4968140;28;20085;-73
2022/03/10 13:50:44;;;;;;;5.72;2.65;;;;;;;;;;4968088;28;20029;-75
2022/03/10 13:53:10;;;;;;;5.75;3.00;;;;;;;;;;4970057;28;20349;-74
2022/03/10 13:55:43;;;;;;;7.97;3.20;;;16.70;49.80;;;;;;4954540;28;20030;-72
2022/03/10 13:58:09;;;;;;;4.50;3.33;;;;;;;;;;4962138;28;20035;-72
2022/03/10 14:00:40;;;;;;;7.47;4.28;;;;;;;;;;4968073;28;20114;-73
2022/03/10 14:03:08;;;;;;;4.57;2.75;;;;;;;;;;4967697;28;20432;-73
2022/03/10 14:05:40;;;;;;;;;;;15.90;52.50;;;;;;4968785;28;20035;-72
2022/03/10 14:08:12;;;;;;;9.02;4.38;;;;;;;;;;4956310;28;19915;-73
2022/03/10 14:10:39;;;;;;;5.85;2.85;;;;;;;;;;4965411;28;20030;-76
2022/03/10 14:13:09;;;;;;;4.60;2.55;;;15.80;53.10;;;;;;4967719;28;20395;-72
2022/03/10 14:15:40;;;;;;;6.38;2.53;;;;;;;;;;4962532;28;20094;-75
2022/03/10 14:18:10;;;;;;;6.05;2.75;;;;;;;;;;4949477;28;20049;-74
2022/03/10 14:20:43;;;;;;;2.72;1.70;;;;;;;;;;4965830;28;20050;-73
2022/03/10 14:23:09;;;;;;;3.80;1.88;;;;;;;;;;4955652;28;20098;-74
2022/03/10 14:25:39;;;;;;;1.98;1.65;;;16.00;48.50;;;;;;4952207;28;20045;-72
2022/03/10 14:28:08;;;;;;;3.63;1.17;;;;;;;;;;4961484;28;20045;-73
2022/03/10 14:30:36;;;;;;;2.78;1.92;;;16.00;49.10;;;;;;4962488;28;20035;-72
2022/03/10 14:33:02;;;;;;;2.60;1.85;;;;;;;;;;4952373;28;20077;-72
2022/03/10 14:35:29;;;;;;;1.92;1.17;;;;;;;;;;4948955;28;20043;-72
2022/03/10 14:37:55;;;;;;;1.45;1.02;;;15.50;71.50;;;;;;4960915;28;20469;-74